createdAt,value
2018-10-03T00:00:22.142Z,5.33
2018-10-03T00:02:50.383Z,7.20
2018-10-03T00:05:18.688Z,6.30
2018-10-03T00:07:46.925Z,3.63
2018-10-03T00:10:15.221Z,7.27
2018-10-03T00:12:43.446Z,3.57
2018-10-03T00:15:11.697Z,4.83
2018-10-03T00:17:39.917Z,3.13
2018-10-03T00:20:08.163Z,3.60
2018-10-03T00:22:36.384Z,6.27
2018-10-03T00:25:04.603Z,5.63
2018-10-03T00:27:32.864Z,4.53
2018-10-03T00:30:01.076Z,4.00
2018-10-03T00:32:29.313Z,5.87
2018-10-03T00:34:57.521Z,5.03
2018-10-03T00:37:25.743Z,5.20
2018-10-03T00:39:53.979Z,7.80
2018-10-03T00:42:22.175Z,6.57
2018-10-03T00:44:50.434Z,6.37
2018-10-03T00:47:18.660Z,4.43
2018-10-03T00:49:46.885Z,5.37
2018-10-03T00:52:15.114Z,6.70
2018-10-03T00:54:43.328Z,2.37
2018-10-03T00:57:11.557Z,5.03
2018-10-03T00:59:39.777Z,5.77
2018-10-03T01:02:08.364Z,4.83
2018-10-03T01:04:36.577Z,5.30
2018-10-03T01:07:04.821Z,5.97
2018-10-03T01:09:33.011Z,5.87
2018-10-03T01:12:01.307Z,5.10
2018-10-03T01:14:29.527Z,3.07
2018-10-03T01:16:57.703Z,5.57
2018-10-03T01:19:25.916Z,3.87
2018-10-03T01:21:54.104Z,5.80
2018-10-03T01:24:22.380Z,6.00
2018-10-03T01:26:50.562Z,4.70
2018-10-03T01:29:18.898Z,6.73
2018-10-03T01:31:47.101Z,5.77
2018-10-03T01:34:15.341Z,4.50
2018-10-03T01:36:43.579Z,3.43
2018-10-03T01:39:11.802Z,7.63
2018-10-03T01:41:40.453Z,3.57
2018-10-03T01:44:09.130Z,5.40
2018-10-03T01:46:37.350Z,6.83
2018-10-03T01:49:05.551Z,3.20
2018-10-03T01:51:33.764Z,6.37
2018-10-03T01:54:02.037Z,3.83
2018-10-03T01:56:30.509Z,6.23
2018-10-03T01:58:58.744Z,4.43
2018-10-03T02:01:26.989Z,7.13
2018-10-03T02:03:55.214Z,5.57
2018-10-03T02:06:23.419Z,5.23
2018-10-03T02:08:51.628Z,5.33
2018-10-03T02:11:19.829Z,7.00
2018-10-03T02:13:48.067Z,5.17
2018-10-03T02:16:16.323Z,3.27
2018-10-03T02:18:44.568Z,3.43
2018-10-03T02:21:12.832Z,3.37
2018-10-03T02:23:41.102Z,5.30
2018-10-03T02:26:09.329Z,6.03
2018-10-03T02:28:37.641Z,4.37
2018-10-03T02:31:06.164Z,4.17
2018-10-03T02:33:34.402Z,3.13
2018-10-03T02:36:02.674Z,5.10
2018-10-03T02:38:30.944Z,4.60
2018-10-03T02:40:59.243Z,2.87
2018-10-03T02:43:27.510Z,5.03
2018-10-03T02:45:55.733Z,4.83
2018-10-03T02:48:24.028Z,5.13
2018-10-03T02:50:52.283Z,5.03
2018-10-03T02:53:20.621Z,5.70
2018-10-03T02:55:48.823Z,5.30
2018-10-03T02:58:17.111Z,6.90
2018-10-03T03:00:45.391Z,7.30
2018-10-03T03:03:13.612Z,7.67
2018-10-03T03:05:41.851Z,3.87
2018-10-03T03:08:10.123Z,3.57
2018-10-03T03:10:38.401Z,2.93
2018-10-03T03:13:06.625Z,4.47
2018-10-03T03:15:34.914Z,5.40
2018-10-03T03:18:03.187Z,5.30
2018-10-03T03:20:31.468Z,5.57
2018-10-03T03:22:59.775Z,5.23
2018-10-03T03:25:28.003Z,9.60
2018-10-03T03:27:56.209Z,6.10
2018-10-03T03:30:24.442Z,5.50
2018-10-03T03:32:52.649Z,7.47
2018-10-03T03:35:20.871Z,5.23
2018-10-03T03:37:49.084Z,4.60
2018-10-03T03:40:17.345Z,4.50
2018-10-03T03:42:45.626Z,8.30
2018-10-03T03:45:13.973Z,4.93
2018-10-03T03:47:42.190Z,5.10
2018-10-03T03:50:10.463Z,6.10
2018-10-03T03:52:38.710Z,4.33
2018-10-03T03:55:06.962Z,6.43
2018-10-03T03:57:35.188Z,4.03
2018-10-03T04:00:03.477Z,2.80
2018-10-03T04:02:31.780Z,4.23
2018-10-03T04:05:00.037Z,6.67
2018-10-03T04:07:28.270Z,5.40
2018-10-03T04:09:56.624Z,5.73
2018-10-03T04:12:24.869Z,4.33
2018-10-03T04:14:53.086Z,3.63
2018-10-03T04:17:21.317Z,4.40
2018-10-03T04:19:49.578Z,5.17
2018-10-03T04:22:17.831Z,3.87
2018-10-03T04:24:46.071Z,6.03
2018-10-03T04:27:14.290Z,5.40
2018-10-03T04:29:42.530Z,5.40
2018-10-03T04:32:10.727Z,7.07
2018-10-03T04:34:38.952Z,9.00
2018-10-03T04:37:07.616Z,5.43
2018-10-03T04:39:35.871Z,5.60
2018-10-03T04:42:04.183Z,4.60
2018-10-03T04:44:36.303Z,6.83
2018-10-03T04:47:10.701Z,4.57
2018-10-03T04:49:43.638Z,6.00
2018-10-03T04:52:11.891Z,4.73
2018-10-03T04:54:40.127Z,5.50
2018-10-03T04:57:08.323Z,4.70
2018-10-03T04:59:36.580Z,3.70
2018-10-03T05:02:04.830Z,2.43
2018-10-03T05:04:33.114Z,4.90
2018-10-03T05:07:01.400Z,4.77
2018-10-03T05:09:29.651Z,4.53
2018-10-03T05:11:57.958Z,5.43
2018-10-03T05:14:26.222Z,5.27
2018-10-03T05:16:54.426Z,4.17
2018-10-03T05:19:22.678Z,2.97
2018-10-03T05:21:50.905Z,5.37
2018-10-03T05:24:19.146Z,4.03
2018-10-03T05:26:47.405Z,5.50
2018-10-03T05:29:15.651Z,3.73
2018-10-03T05:31:43.913Z,6.53
2018-10-03T05:34:12.171Z,6.27
2018-10-03T05:36:40.392Z,4.83
2018-10-03T05:39:10.370Z,4.83
2018-10-03T05:41:38.637Z,5.53
2018-10-03T05:44:07.004Z,3.97
2018-10-03T05:46:35.205Z,4.37
2018-10-03T05:49:03.581Z,3.53
2018-10-03T05:51:31.823Z,3.20
2018-10-03T05:54:00.511Z,4.90
2018-10-03T05:56:28.767Z,4.10
2018-10-03T05:58:57.062Z,6.47
2018-10-03T06:01:25.300Z,5.37
2018-10-03T06:03:53.564Z,4.47
2018-10-03T06:06:21.791Z,5.10
2018-10-03T06:08:50.039Z,2.70
2018-10-03T06:11:18.264Z,4.67
2018-10-03T06:13:46.527Z,4.57
2018-10-03T06:16:14.785Z,5.67
2018-10-03T06:18:43.080Z,5.00
2018-10-03T06:21:11.269Z,6.80
2018-10-03T06:23:39.503Z,4.90
2018-10-03T06:26:07.751Z,5.00
2018-10-03T06:28:36.052Z,7.53
2018-10-03T06:31:04.275Z,3.70
2018-10-03T06:33:32.622Z,7.10
2018-10-03T06:36:00.807Z,6.63
2018-10-03T06:38:29.056Z,6.10
2018-10-03T06:40:57.317Z,4.60
2018-10-03T06:43:25.589Z,5.03
2018-10-03T06:45:53.859Z,4.53
2018-10-03T06:48:22.259Z,4.77
2018-10-03T06:50:50.530Z,3.80
2018-10-03T06:53:18.751Z,8.10
2018-10-03T06:55:47.012Z,4.83
2018-10-03T06:58:15.263Z,3.70
2018-10-03T07:00:43.855Z,7.03
2018-10-03T07:03:12.082Z,5.87
2018-10-03T07:05:40.316Z,4.60
2018-10-03T07:08:08.549Z,3.93
2018-10-03T07:10:36.804Z,2.87
2018-10-03T07:13:05.018Z,5.13
2018-10-03T07:15:33.284Z,3.73
2018-10-03T07:18:01.538Z,4.23
2018-10-03T07:20:29.880Z,5.13
2018-10-03T07:22:58.121Z,3.83
2018-10-03T07:25:26.777Z,4.20
2018-10-03T07:27:55.024Z,6.23
2018-10-03T07:30:23.526Z,7.83
2018-10-03T07:32:51.726Z,3.70
2018-10-03T07:35:19.998Z,6.73
2018-10-03T07:37:48.225Z,5.77
2018-10-03T07:40:16.529Z,5.90
2018-10-03T07:42:45.144Z,4.27
2018-10-03T07:45:13.479Z,6.37
2018-10-03T07:47:41.754Z,3.73
2018-10-03T07:50:10.013Z,7.43
2018-10-03T07:52:38.295Z,5.47
2018-10-03T07:55:06.613Z,7.37
2018-10-03T07:57:34.835Z,6.87
2018-10-03T08:00:03.086Z,5.73
2018-10-03T08:02:31.317Z,4.87
2018-10-03T08:04:59.574Z,3.70
2018-10-03T08:07:27.857Z,6.10
2018-10-03T08:09:56.181Z,5.93
2018-10-03T08:12:24.388Z,5.03
2018-10-03T08:14:52.624Z,4.93
2018-10-03T08:17:20.904Z,5.47
2018-10-03T08:19:49.102Z,6.10
2018-10-03T08:22:17.354Z,5.60
2018-10-03T08:24:45.585Z,5.43
2018-10-03T08:27:13.870Z,5.23
2018-10-03T08:29:42.111Z,5.57
2018-10-03T08:32:10.359Z,5.80
2018-10-03T08:34:38.607Z,6.50
2018-10-03T08:37:06.908Z,6.03
2018-10-03T08:39:35.169Z,4.70
2018-10-03T08:42:03.433Z,5.37
2018-10-03T08:44:31.667Z,5.63
2018-10-03T08:46:59.950Z,3.67
2018-10-03T08:49:28.181Z,5.20
2018-10-03T08:51:57.283Z,5.23
2018-10-03T08:54:25.581Z,3.93
2018-10-03T08:56:53.831Z,4.63
2018-10-03T08:59:22.087Z,3.47
2018-10-03T09:01:50.313Z,3.50
2018-10-03T09:04:18.583Z,4.50
2018-10-03T09:06:46.812Z,4.80
2018-10-03T09:09:15.056Z,4.47
2018-10-03T09:11:43.351Z,3.83
2018-10-03T09:14:11.527Z,3.33
2018-10-03T09:16:39.793Z,3.87
2018-10-03T09:19:08.188Z,3.93
2018-10-03T09:21:36.501Z,4.33
2018-10-03T09:24:04.728Z,5.40
2018-10-03T09:26:32.957Z,6.70
2018-10-03T09:29:01.203Z,4.67
2018-10-03T09:31:29.419Z,5.80
2018-10-03T09:33:57.641Z,4.23
2018-10-03T09:36:25.909Z,4.13
2018-10-03T09:38:54.161Z,3.63
2018-10-03T09:41:22.381Z,4.23
2018-10-03T09:43:50.642Z,2.50
2018-10-03T09:46:18.902Z,3.43
2018-10-03T09:48:47.136Z,3.73
2018-10-03T09:51:15.357Z,2.70
2018-10-03T09:53:43.697Z,2.30
2018-10-03T09:56:11.961Z,4.30
2018-10-03T09:58:40.294Z,3.43
2018-10-03T10:01:18.917Z,4.53
2018-10-03T10:03:47.407Z,3.03
2018-10-03T10:06:15.647Z,3.37
2018-10-03T10:08:43.938Z,4.00
2018-10-03T10:11:12.242Z,3.43
2018-10-03T10:13:40.472Z,6.33
2018-10-03T10:16:08.705Z,4.72
2018-10-03T10:18:36.976Z,3.57
2018-10-03T10:21:05.208Z,3.70
2018-10-03T10:23:33.444Z,4.58
2018-10-03T10:26:01.668Z,4.97
2018-10-03T10:28:29.941Z,3.93
2018-10-03T10:30:58.191Z,6.40
2018-10-03T10:33:26.451Z,3.70
2018-10-03T10:35:54.691Z,4.00
2018-10-03T10:38:22.944Z,2.75
2018-10-03T10:40:51.181Z,3.35
2018-10-03T10:43:19.453Z,4.45
2018-10-03T10:45:47.717Z,3.33
2018-10-03T10:48:15.960Z,5.15
2018-10-03T10:50:44.189Z,6.65
2018-10-03T10:53:12.429Z,2.92
2018-10-03T10:55:40.628Z,4.92
2018-10-03T10:58:09.165Z,5.60
2018-10-03T11:00:37.403Z,3.70
2018-10-03T11:03:05.692Z,5.05
2018-10-03T11:05:33.933Z,2.85
2018-10-03T11:08:02.178Z,3.67
2018-10-03T11:10:30.450Z,2.58
2018-10-03T11:13:00.827Z,3.30
2018-10-03T11:15:29.175Z,2.95
2018-10-03T11:17:57.372Z,2.55
2018-10-03T11:20:25.872Z,6.37
2018-10-03T11:22:54.180Z,2.08
2018-10-03T11:25:22.567Z,2.62
2018-10-03T11:27:50.791Z,2.42
2018-10-03T11:30:19.006Z,4.00
2018-10-03T11:32:47.230Z,3.65
2018-10-03T11:35:15.472Z,2.55
2018-10-03T11:37:43.692Z,3.37
2018-10-03T11:40:11.969Z,3.67
2018-10-03T11:42:40.205Z,2.33
2018-10-03T11:45:08.438Z,2.77
2018-10-03T11:47:36.660Z,3.47
2018-10-03T11:50:04.919Z,2.22
2018-10-03T11:52:33.169Z,5.12
2018-10-03T11:55:01.406Z,5.45
2018-10-03T11:57:29.663Z,3.15
2018-10-03T11:59:57.876Z,2.55
2018-10-03T12:02:26.157Z,2.52
2018-10-03T12:04:54.387Z,4.83
2018-10-03T12:07:22.631Z,3.83
2018-10-03T12:09:50.881Z,3.90
2018-10-03T12:12:19.118Z,3.83
2018-10-03T12:14:47.377Z,3.85
2018-10-03T12:17:15.640Z,5.72
2018-10-03T12:19:43.953Z,2.80
2018-10-03T12:22:12.174Z,2.55
2018-10-03T12:24:40.389Z,2.40
2018-10-03T12:27:08.603Z,3.52
2018-10-03T12:29:36.833Z,3.30
2018-10-03T12:32:05.072Z,2.72
2018-10-03T12:34:33.323Z,3.80
2018-10-03T12:37:01.603Z,12.00
2018-10-03T12:39:29.803Z,2.62
2018-10-03T12:41:58.041Z,2.12
2018-10-03T12:44:26.297Z,2.50
2018-10-03T12:46:54.582Z,2.67
2018-10-03T12:49:22.854Z,2.83
2018-10-03T12:51:51.079Z,3.80
2018-10-03T12:54:19.388Z,3.67
2018-10-03T12:56:47.639Z,2.80
2018-10-03T12:59:15.847Z,2.50
2018-10-03T13:01:44.092Z,4.92
2018-10-03T13:04:12.333Z,3.02
2018-10-03T13:06:40.591Z,3.87
2018-10-03T13:09:10.612Z,4.80
2018-10-03T13:11:38.886Z,3.37
2018-10-03T13:14:07.420Z,3.20
2018-10-03T13:16:35.665Z,2.70
2018-10-03T13:19:04.171Z,3.02
2018-10-03T13:21:32.541Z,2.50
2018-10-03T13:24:00.853Z,2.62
2018-10-03T13:26:29.127Z,2.55
2018-10-03T13:28:57.361Z,3.65
2018-10-03T13:31:26.389Z,3.50
2018-10-03T13:33:54.609Z,2.85
2018-10-03T13:36:22.830Z,2.10
2018-10-03T13:38:51.068Z,3.27
2018-10-03T13:41:19.413Z,3.35
2018-10-03T13:43:47.571Z,4.60
2018-10-03T13:46:15.816Z,3.30
2018-10-03T13:48:44.067Z,2.58
2018-10-03T13:51:12.343Z,2.22
2018-10-03T13:53:40.602Z,2.58
2018-10-03T13:56:08.946Z,2.70
2018-10-03T13:58:37.206Z,2.00
2018-10-03T14:01:05.466Z,4.20
2018-10-03T14:03:33.697Z,2.80
2018-10-03T14:06:01.978Z,3.50
2018-10-03T14:08:30.187Z,6.10
2018-10-03T14:10:58.455Z,3.20
2018-10-03T14:13:26.720Z,3.65
2018-10-03T14:15:54.961Z,2.87
2018-10-03T14:18:23.209Z,3.40
2018-10-03T14:20:51.516Z,3.77
2018-10-03T14:23:19.775Z,2.37
2018-10-03T14:25:48.396Z,2.35
2018-10-03T14:28:16.611Z,3.47
2018-10-03T14:30:44.873Z,2.95
2018-10-03T14:33:13.188Z,2.60
2018-10-03T14:35:41.387Z,3.10
2018-10-03T14:38:09.644Z,2.70
2018-10-03T14:40:37.946Z,3.58
2018-10-03T14:43:06.231Z,3.15
2018-10-03T14:45:34.481Z,3.25
2018-10-03T14:48:09.092Z,2.75
2018-10-03T14:50:37.373Z,3.35
2018-10-03T14:53:05.686Z,2.65
2018-10-03T14:55:33.971Z,4.00
2018-10-03T14:58:02.181Z,2.72
2018-10-03T15:00:30.481Z,3.12
2018-10-03T15:02:58.676Z,2.25
2018-10-03T15:05:27.000Z,2.40
2018-10-03T15:07:55.225Z,3.08
2018-10-03T15:10:23.526Z,3.17
2018-10-03T15:12:51.837Z,2.60
2018-10-03T15:15:20.029Z,3.67
2018-10-03T15:17:48.268Z,2.77
2018-10-03T15:20:16.474Z,2.58
2018-10-03T15:22:44.734Z,2.33
2018-10-03T15:25:13.011Z,1.87
2018-10-03T15:27:41.254Z,2.27
2018-10-03T15:30:09.600Z,3.92
2018-10-03T15:32:37.751Z,2.25
2018-10-03T15:35:06.031Z,1.90
2018-10-03T15:37:34.282Z,2.05
2018-10-03T15:40:02.537Z,2.00
2018-10-03T15:42:30.743Z,2.37
2018-10-03T15:44:59.033Z,2.00
2018-10-03T15:47:27.294Z,4.45
2018-10-03T15:49:55.578Z,2.52
2018-10-03T15:52:23.855Z,2.55
2018-10-03T15:54:52.154Z,2.70
2018-10-03T15:57:20.515Z,1.98
2018-10-03T15:59:48.811Z,1.80
2018-10-03T16:02:17.134Z,2.55
2018-10-03T16:04:45.388Z,2.40
2018-10-03T16:07:13.652Z,3.98
2018-10-03T16:09:41.983Z,4.80
2018-10-03T16:12:10.269Z,5.17
2018-10-03T16:14:38.463Z,6.25
2018-10-03T16:17:06.801Z,3.40
2018-10-03T16:19:35.027Z,11.70
2018-10-03T16:22:03.365Z,7.67
2018-10-03T16:24:31.596Z,6.80
2018-10-03T16:26:59.823Z,3.60
2018-10-03T16:29:28.082Z,4.12
2018-10-03T16:31:56.312Z,3.05
2018-10-03T16:34:24.564Z,7.30
2018-10-03T16:36:52.842Z,5.15
2018-10-03T16:39:21.087Z,4.42
2018-10-03T16:41:49.356Z,2.90
2018-10-03T16:44:17.675Z,3.17
2018-10-03T16:46:45.926Z,3.65
2018-10-03T16:49:14.194Z,3.33
2018-10-03T16:51:42.505Z,3.45
2018-10-03T16:54:11.105Z,3.58
2018-10-03T16:56:39.400Z,3.80
2018-10-03T16:59:08.477Z,3.20
2018-10-03T17:01:37.061Z,5.90
2018-10-03T17:04:05.432Z,5.45
2018-10-03T17:06:33.691Z,5.53
2018-10-03T17:09:01.927Z,3.55
2018-10-03T17:11:30.196Z,3.75
2018-10-03T17:14:34.565Z,8.28
2018-10-03T17:17:03.140Z,9.80
2018-10-03T17:19:31.381Z,13.55
2018-10-03T17:22:00.008Z,8.38
2018-10-03T17:24:29.507Z,6.75
2018-10-03T17:26:57.778Z,4.67
2018-10-03T17:29:26.019Z,4.97
2018-10-03T17:31:54.265Z,4.37
2018-10-03T17:34:22.582Z,5.05
2018-10-03T17:36:52.150Z,3.72
2018-10-03T17:39:21.192Z,3.80
2018-10-03T17:41:49.495Z,5.70
2018-10-03T17:44:18.752Z,5.83
2018-10-03T17:46:47.762Z,5.00
2018-10-03T17:49:16.110Z,6.75
2018-10-03T17:51:47.355Z,5.15
2018-10-03T17:54:15.615Z,5.67
2018-10-03T17:56:43.841Z,9.38
2018-10-03T17:59:12.159Z,7.83
2018-10-03T18:01:42.035Z,6.30
2018-10-03T18:04:10.324Z,8.20
2018-10-03T18:06:38.594Z,7.92
2018-10-03T18:09:08.335Z,7.10
2018-10-03T18:11:36.815Z,7.33
2018-10-03T18:14:05.080Z,7.05
2018-10-03T18:16:33.319Z,6.85
2018-10-03T18:19:01.591Z,5.87
2018-10-03T18:21:29.816Z,6.35
2018-10-03T18:23:58.124Z,6.67
2018-10-03T18:26:26.384Z,6.42
2018-10-03T18:28:54.724Z,5.78
2018-10-03T18:31:23.017Z,3.90
2018-10-03T18:33:51.233Z,5.47
2018-10-03T18:36:19.506Z,4.10
2018-10-03T18:38:48.015Z,5.15
2018-10-03T18:41:16.382Z,5.37
2018-10-03T18:43:44.654Z,6.17
2018-10-03T18:46:12.951Z,3.60
2018-10-03T18:48:41.192Z,5.08
2018-10-03T18:51:09.442Z,4.35
2018-10-03T18:53:37.761Z,3.30
2018-10-03T18:56:06.092Z,3.47
2018-10-03T18:58:34.415Z,4.45
2018-10-03T19:01:02.719Z,6.67
2018-10-03T19:03:30.963Z,3.98
2018-10-03T19:05:59.273Z,4.70
2018-10-03T19:08:27.546Z,3.90
2018-10-03T19:10:55.896Z,4.45
2018-10-03T19:13:24.174Z,6.42
2018-10-03T19:15:52.446Z,5.15
2018-10-03T19:18:21.019Z,5.90
2018-10-03T19:20:49.453Z,7.12
2018-10-03T19:23:17.693Z,4.70
2018-10-03T19:25:46.070Z,4.90
2018-10-03T19:28:14.332Z,5.22
2018-10-03T19:30:42.784Z,6.75
2018-10-03T19:33:12.074Z,6.55
2018-10-03T19:35:40.423Z,11.88
2018-10-03T19:38:08.753Z,16.93
2018-10-03T19:40:37.105Z,8.60
2018-10-03T19:43:05.547Z,6.97
2018-10-03T19:45:33.894Z,7.78
2018-10-03T19:48:02.181Z,7.75
2018-10-03T19:50:30.445Z,9.30
2018-10-03T19:53:05.466Z,6.92
2018-10-03T19:55:33.844Z,6.55
2018-10-03T19:58:02.177Z,6.80
2018-10-03T20:00:30.389Z,8.13
2018-10-03T20:02:58.820Z,5.22
2018-10-03T20:05:27.106Z,5.45
2018-10-03T20:07:55.360Z,5.78
2018-10-03T20:10:23.638Z,24.80
2018-10-03T20:12:51.911Z,91.60
2018-10-03T20:15:20.161Z,66.47
2018-10-03T20:17:48.421Z,18.55
2018-10-03T20:20:16.733Z,12.23
2018-10-03T20:22:44.980Z,7.05
2018-10-03T20:25:13.541Z,7.92
2018-10-03T20:27:41.775Z,6.42
2018-10-03T20:30:10.014Z,8.08
2018-10-03T20:32:38.338Z,6.25
2018-10-03T20:35:06.572Z,8.83
2018-10-03T20:37:34.856Z,7.15
2018-10-03T20:40:03.106Z,5.78
2018-10-03T20:42:31.321Z,5.40
2018-10-03T20:44:59.559Z,6.20
2018-10-03T20:47:27.891Z,6.60
2018-10-03T20:50:02.652Z,5.70
2018-10-03T20:52:30.919Z,6.00
2018-10-03T20:54:59.196Z,5.77
2018-10-03T20:57:27.495Z,6.80
2018-10-03T20:59:55.695Z,8.33
2018-10-03T21:02:23.952Z,7.37
2018-10-03T21:04:52.207Z,8.53
2018-10-03T21:07:20.490Z,7.28
2018-10-03T21:09:48.716Z,6.67
2018-10-03T21:12:16.947Z,6.60
2018-10-03T21:14:45.198Z,9.18
2018-10-03T21:17:13.460Z,9.90
2018-10-03T21:19:41.711Z,8.78
2018-10-03T21:22:10.032Z,9.80
2018-10-03T21:24:38.293Z,8.85
2018-10-03T21:27:06.559Z,9.40
2018-10-03T21:29:34.772Z,7.95
2018-10-03T21:32:03.095Z,7.53
2018-10-03T21:34:31.351Z,6.80
2018-10-03T21:36:59.550Z,6.30
2018-10-03T21:39:27.781Z,8.43
2018-10-03T21:41:56.027Z,6.57
2018-10-03T21:44:24.292Z,6.30
2018-10-03T21:46:52.526Z,5.73
2018-10-03T21:49:20.814Z,5.10
2018-10-03T21:51:49.040Z,5.83
2018-10-03T21:54:17.320Z,5.33
2018-10-03T21:56:45.632Z,5.03
2018-10-03T21:59:13.879Z,5.53
2018-10-03T22:01:42.218Z,4.97
2018-10-03T22:04:10.459Z,5.27
2018-10-03T22:06:38.670Z,5.43
2018-10-03T22:09:08.046Z,5.03
2018-10-03T22:11:36.510Z,4.73
2018-10-03T22:14:04.740Z,7.00
2018-10-03T22:16:32.964Z,5.80
2018-10-03T22:19:01.202Z,5.50
2018-10-03T22:21:29.507Z,4.97
2018-10-03T22:23:57.759Z,5.67
2018-10-03T22:26:25.987Z,5.13
2018-10-03T22:28:54.224Z,5.50
2018-10-03T22:31:22.427Z,6.23
2018-10-03T22:33:50.680Z,7.00
2018-10-03T22:36:18.916Z,5.40
2018-10-03T22:38:47.180Z,6.00
2018-10-03T22:41:15.399Z,6.73
2018-10-03T22:43:43.632Z,5.87
2018-10-03T22:46:11.852Z,7.07
2018-10-03T22:48:40.083Z,6.27
2018-10-03T22:51:08.330Z,7.17
2018-10-03T22:53:36.613Z,7.23
2018-10-03T22:56:04.848Z,6.80
2018-10-03T22:58:33.073Z,6.37
2018-10-03T23:01:01.315Z,9.50
2018-10-03T23:03:29.530Z,9.77
2018-10-03T23:05:57.738Z,10.00
2018-10-03T23:08:25.987Z,9.40
2018-10-03T23:10:54.249Z,11.63
2018-10-03T23:13:22.459Z,8.53
2018-10-03T23:15:50.678Z,7.67
2018-10-03T23:18:19.002Z,9.83
2018-10-03T23:20:47.234Z,8.20
2018-10-03T23:23:15.462Z,8.17
2018-10-03T23:25:43.714Z,8.10
2018-10-03T23:28:12.243Z,8.03
2018-10-03T23:30:40.489Z,8.30
2018-10-03T23:33:08.812Z,7.67
2018-10-03T23:35:37.088Z,8.67
2018-10-03T23:38:05.435Z,8.30
2018-10-03T23:40:33.705Z,8.37
2018-10-03T23:43:02.020Z,8.67
2018-10-03T23:45:30.286Z,8.30
2018-10-03T23:47:58.504Z,8.53
2018-10-03T23:50:26.765Z,8.60
2018-10-03T23:52:54.993Z,8.00
2018-10-03T23:55:23.227Z,7.50
2018-10-03T23:57:51.449Z,8.83
